| time (UTC) | temp C | wind direction | speed KPH | gust KPH | rain 1hr cm | rain 24hr cm | rain mn cm | humidity % | barometer mb |
| 20260509192504 | 16 | 31 | 4.8 | 9.7 | 0.00 | 0.00 | 0.00 | 69 | 1013.6 |
| 20260509192004 | 16 | 41 | 6.4 | 11.3 | 0.00 | 0.00 | 0.00 | 68 | 1013.4 |
| 20260509191504 | 17 | 46 | 6.4 | 11.3 | 0.00 | 0.00 | 0.00 | 68 | 1013.5 |
| 20260509191004 | 17 | 44 | 4.8 | 11.3 | 0.00 | 0.00 | 0.00 | 67 | 1013.4 |
| 20260509190504 | 17 | 44 | 4.8 | 11.3 | 0.00 | 0.00 | 0.00 | 64 | 1013.6 |
| 20260509190004 | 17 | 48 | 6.4 | 12.9 | 0.00 | 0.00 | 0.00 | 63 | 1013.5 |
| 20260509185504 | 17 | 53 | 6.4 | 12.9 | 0.00 | 0.00 | 0.00 | 62 | 1013.6 |
| 20260509185004 | 18 | 50 | 6.4 | 12.9 | 0.00 | 0.00 | 0.00 | 60 | 1013.6 |
| 20260509184504 | 18 | 53 | 4.8 | 9.7 | 0.00 | 0.00 | 0.00 | 60 | 1013.6 |
| 20260509184005 | 18 | 53 | 4.8 | 9.7 | 0.00 | 0.00 | 0.00 | 59 | 1013.5 |
| 20260509183504 | 18 | 57 | 3.2 | 9.7 | 0.00 | 0.00 | 0.00 | 58 | 1013.6 |
| 20260509183004 | 19 | 47 | 3.2 | 4.8 | 0.00 | 0.00 | 0.00 | 58 | 1013.6 |
| 20260509182504 | 19 | 43 | 3.2 | 4.8 | 0.00 | 0.00 | 0.00 | 57 | 1013.5 |
| 20260509181504 | 20 | 47 | 3.2 | 6.4 | 0.00 | 0.00 | 0.00 | 55 | 1013.6 |
| 20260509181004 | 20 | 62 | 3.2 | 6.4 | 0.00 | 0.00 | 0.00 | 54 | 1013.4 |
| 20260509180507 | 20 | 64 | 3.2 | 8.0 | 0.00 | 0.00 | 0.00 | 51 | 1013.5 |
| 20260509180004 | 21 | 72 | 4.8 | 8.0 | 0.00 | 0.00 | 0.00 | 47 | 1013.5 |
| 20260509175006 | 21 | 78 | 4.8 | 12.9 | 0.00 | 0.00 | 0.00 | 45 | 1013.4 |
| 20260509174506 | 21 | 82 | 3.2 | 11.3 | 0.00 | 0.00 | 0.00 | 45 | 1013.4 |
| 20260509174005 | 21 | 75 | 6.4 | 12.9 | 0.00 | 0.00 | 0.00 | 45 | 1013.4 |
| 20260509173505 | 21 | 67 | 6.4 | 12.9 | 0.00 | 0.00 | 0.00 | 45 | 1013.6 |
| 20260509173005 | 21 | 71 | 6.4 | 11.3 | 0.00 | 0.00 | 0.00 | 45 | 1013.3 |
| 20260509172505 | 22 | 77 | 6.4 | 12.9 | 0.00 | 0.00 | 0.00 | 44 | 1013.2 |
| 20260509172005 | 22 | 82 | 6.4 | 12.9 | 0.00 | 0.00 | 0.00 | 44 | 1013.2 |
| 20260509171505 | 22 | 86 | 8.0 | 12.9 | 0.00 | 0.00 | 0.00 | 43 | 1013.3 |
| 20260509171005 | 22 | 99 | 8.0 | 12.9 | 0.00 | 0.00 | 0.00 | 43 | 1013.2 |
| 20260509170505 | 22 | 107 | 8.0 | 14.5 | 0.00 | 0.00 | 0.00 | 43 | 1013.2 |
| 20260509170005 | 22 | 111 | 8.0 | 16.1 | 0.00 | 0.00 | 0.00 | 39 | 1013.3 |
| 20260509165506 | 22 | 121 | 8.0 | 16.1 | 0.00 | 0.00 | 0.00 | 39 | 1013.3 |
| 20260509165006 | 22 | 122 | 8.0 | 16.1 | 0.00 | 0.00 | 0.00 | 40 | 1013.3 |
| 20260509164505 | 22 | 112 | 6.4 | 11.3 | 0.00 | 0.00 | 0.00 | 40 | 1013.2 |
| 20260509163505 | 22 | 101 | 6.4 | 12.9 | 0.00 | 0.00 | 0.00 | 40 | 1013.3 |
| 20260509163005 | 23 | 93 | 6.4 | 12.9 | 0.00 | 0.00 | 0.00 | 39 | 1013.4 |
| 20260509162505 | 23 | 94 | 6.4 | 9.7 | 0.00 | 0.00 | 0.00 | 39 | 1013.4 |
| 20260509161505 | 23 | 110 | 6.4 | 11.3 | 0.00 | 0.00 | 0.00 | 38 | 1013.3 |
| 20260509161006 | 24 | 121 | 6.4 | 14.5 | 0.00 | 0.00 | 0.00 | 38 | 1013.4 |
| 20260509160505 | 24 | 132 | 6.4 | 14.5 | 0.00 | 0.00 | 0.00 | 38 | 1013.4 |
| 20260509160006 | 24 | 140 | 6.4 | 12.9 | 0.00 | 0.00 | 0.00 | 38 | 1013.3 |
| 20260509155005 | 24 | 130 | 6.4 | 9.7 | 0.00 | 0.00 | 0.00 | 39 | 1013.3 |
| 20260509154505 | 24 | 134 | 8.0 | 17.7 | 0.00 | 0.00 | 0.00 | 39 | 1013.5 |
| 20260509154005 | 24 | 118 | 8.0 | 17.7 | 0.00 | 0.00 | 0.00 | 39 | 1013.3 |
| 20260509153505 | 23 | 91 | 6.4 | 12.9 | 0.00 | 0.00 | 0.00 | 39 | 1013.5 |
| 20260509153005 | 23 | 79 | 8.0 | 14.5 | 0.00 | 0.00 | 0.00 | 39 | 1013.3 |
| 20260509151508 | 23 | 84 | 6.4 | 17.7 | 0.00 | 0.00 | 0.00 | 39 | 1013.3 |
| 20260509150505 | 23 | 78 | 8.0 | 17.7 | 0.00 | 0.00 | 0.00 | 39 | 1013.4 |
| 20260509150005 | 23 | 80 | 6.4 | 16.1 | 0.00 | 0.00 | 0.00 | 38 | 1013.5 |
| 20260509145505 | 23 | 81 | 6.4 | 14.5 | 0.00 | 0.00 | 0.00 | 38 | 1013.6 |
| 20260509145005 | 23 | 74 | 9.7 | 20.9 | 0.00 | 0.00 | 0.00 | 38 | 1013.8 |
| 20260509144505 | 23 | 69 | 11.3 | 20.9 | 0.00 | 0.00 | 0.00 | 38 | 1013.7 |
| 20260509144005 | 23 | 103 | 8.0 | 16.1 | 0.00 | 0.00 | 0.00 | 38 | 1014.1 |
| 20260509143505 | 23 | 133 | 6.4 | 12.9 | 0.00 | 0.00 | 0.00 | 39 | 1014.1 |
| 20260509142505 | 23 | 359 | 6.4 | 16.1 | 0.00 | 0.00 | 0.00 | 38 | 1014.3 |
| 20260509142005 | 23 | 345 | 8.0 | 20.9 | 0.00 | 0.00 | 0.00 | 39 | 1014.3 |
| 20260509141505 | 23 | 35 | 8.0 | 20.9 | 0.00 | 0.00 | 0.00 | 39 | 1014.5 |
| 20260509141005 | 23 | 35 | 6.4 | 16.1 | 0.00 | 0.00 | 0.00 | 38 | 1014.7 |
| 20260509140505 | 23 | 49 | 4.8 | 11.3 | 0.00 | 0.00 | 0.00 | 38 | 1014.4 |
| 20260509140006 | 23 | 47 | 6.4 | 12.9 | 0.00 | 0.00 | 0.00 | 39 | 1014.6 |
| 20260509135005 | 22 | 65 | 8.0 | 16.1 | 0.00 | 0.00 | 0.00 | 38 | 1014.7 |
| 20260509134505 | 22 | 73 | 9.7 | 16.1 | 0.00 | 0.00 | 0.00 | 38 | 1014.8 |
| 20260509134005 | 22 | 75 | 6.4 | 12.9 | 0.00 | 0.00 | 0.00 | 39 | 1014.9 |
| 20260509133505 | 22 | 84 | 4.8 | 11.3 | 0.00 | 0.00 | 0.00 | 39 | 1015.1 |
| 20260509133005 | 22 | 85 | 8.0 | 14.5 | 0.00 | 0.00 | 0.00 | 39 | 1015.0 |
| 20260509132005 | 22 | 81 | 6.4 | 14.5 | 0.00 | 0.00 | 0.00 | 38 | 1015.0 |
| 20260509131505 | 22 | 78 | 4.8 | 11.3 | 0.00 | 0.00 | 0.00 | 38 | 1015.1 |
| 20260509131005 | 22 | 79 | 8.0 | 16.1 | 0.00 | 0.00 | 0.00 | 39 | 1015.3 |
| 20260509130505 | 22 | 76 | 8.0 | 16.1 | 0.00 | 0.00 | 0.00 | 42 | 1015.1 |
| 20260509130005 | 22 | 64 | 9.7 | 17.7 | 0.00 | 0.00 | 0.00 | 42 | 1015.2 |
| 20260509125505 | 22 | 68 | 9.7 | 17.7 | 0.00 | 0.00 | 0.00 | 40 | 1015.4 |
| 20260509125005 | 22 | 59 | 6.4 | 17.7 | 0.00 | 0.00 | 0.00 | 40 | 1015.2 |
| 20260509124505 | 22 | 61 | 3.2 | 12.9 | 0.00 | 0.00 | 0.00 | 42 | 1015.3 |
| 20260509124005 | 22 | 55 | 8.0 | 17.7 | 0.00 | 0.00 | 0.00 | 44 | 1015.4 |
| 20260509123505 | 22 | 46 | 8.0 | 17.7 | 0.00 | 0.00 | 0.00 | 44 | 1015.4 |
| 20260509123005 | 22 | 52 | 9.7 | 17.7 | 0.00 | 0.00 | 0.00 | 44 | 1015.6 |
| 20260509122506 | 22 | 53 | 9.7 | 17.7 | 0.00 | 0.00 | 0.00 | 45 | 1015.6 |
| 20260509121508 | 21 | 54 | 6.4 | 14.5 | 0.00 | 0.00 | 0.00 | 46 | 1015.9 |
| 20260509120505 | 21 | 61 | 6.4 | 14.5 | 0.00 | 0.00 | 0.00 | 46 | 1015.9 |
| 20260509120005 | 21 | 69 | 8.0 | 14.5 | 0.00 | 0.00 | 0.00 | 46 | 1015.8 |
| 20260509115505 | 21 | 70 | 8.0 | 14.5 | 0.00 | 0.00 | 0.00 | 46 | 1016.0 |
| 20260509114505 | 21 | 193 | 8.0 | 14.5 | 0.00 | 0.00 | 0.00 | 49 | 1016.1 |
| 20260509114005 | 21 | 227 | 6.4 | 12.9 | 0.00 | 0.00 | 0.00 | 48 | 1016.0 |
| 20260509113505 | 21 | 228 | 4.8 | 12.9 | 0.00 | 0.00 | 0.00 | 52 | 1016.3 |
| 20260509113005 | 21 | 261 | 4.8 | 12.9 | 0.00 | 0.00 | 0.00 | 55 | 1016.1 |
| 20260509112508 | 21 | 272 | 4.8 | 12.9 | 0.00 | 0.00 | 0.00 | 55 | 1016.3 |
| 20260509112005 | 21 | 277 | 3.2 | 6.4 | 0.00 | 0.00 | 0.00 | 54 | 1016.3 |
| 20260509111508 | 20 | 280 | 3.2 | 6.4 | 0.00 | 0.00 | 0.00 | 55 | 1016.4 |
| 20260509111005 | 20 | 273 | 4.8 | 9.7 | 0.00 | 0.00 | 0.00 | 56 | 1016.4 |
| 20260509110508 | 20 | 275 | 6.4 | 11.3 | 0.00 | 0.00 | 0.00 | 57 | 1016.5 |
| 20260509110005 | 20 | 262 | 6.4 | 12.9 | 0.00 | 0.00 | 0.00 | 57 | 1016.6 |
| 20260509105506 | 20 | 256 | 6.4 | 12.9 | 0.00 | 0.00 | 0.00 | 61 | 1016.6 |
| 20260509104505 | 20 | 243 | 9.7 | 12.9 | 0.00 | 0.00 | 0.00 | 61 | 1015.7 |
| 20260509104005 | 20 | 244 | 8.0 | 12.9 | 0.00 | 0.00 | 0.00 | 64 | 1015.8 |
| 20260509103505 | 19 | 245 | 6.4 | 12.9 | 0.00 | 0.00 | 0.00 | 63 | 1015.9 |
| 20260509103005 | 19 | 236 | 6.4 | 12.9 | 0.00 | 0.00 | 0.00 | 63 | 1015.8 |
| 20260509102505 | 19 | 235 | 6.4 | 12.9 | 0.00 | 0.00 | 0.00 | 64 | 1015.8 |
| 20260509102005 | 19 | 226 | 4.8 | 12.9 | 0.00 | 0.00 | 0.00 | 65 | 1016.0 |
| 20260509101506 | 19 | 226 | 4.8 | 12.9 | 0.00 | 0.00 | 0.00 | 65 | 1015.9 |
| 20260509101005 | 19 | 230 | 6.4 | 12.9 | 0.00 | 0.00 | 0.00 | 65 | 1016.0 |
| 20260509100505 | 18 | 233 | 6.4 | 12.9 | 0.00 | 0.00 | 0.00 | 65 | 1016.0 |
| 20260509100005 | 18 | 238 | 6.4 | 9.7 | 0.00 | 0.00 | 0.00 | 66 | 1015.8 |
| 20260509095505 | 18 | 243 | 4.8 | 9.7 | 0.00 | 0.00 | 0.00 | 66 | 1016.0 |
| 20260509095005 | 18 | 235 | 4.8 | 11.3 | 0.00 | 0.00 | 0.00 | 67 | 1016.0 |
| 20260509094505 | 18 | 239 | 4.8 | 12.9 | 0.00 | 0.00 | 0.00 | 67 | 1016.0 |
| 20260509094005 | 18 | 247 | 6.4 | 12.9 | 0.00 | 0.00 | 0.00 | 67 | 1015.9 |
| 20260509093505 | 18 | 252 | 6.4 | 12.9 | 0.00 | 0.00 | 0.00 | 68 | 1015.9 |
| 20260509093005 | 17 | 253 | 6.4 | 12.9 | 0.00 | 0.00 | 0.00 | 68 | 1016.1 |
| 20260509092505 | 17 | 254 | 8.0 | 12.9 | 0.00 | 0.00 | 0.00 | 68 | 1016.0 |
| 20260509092005 | 17 | 266 | 8.0 | 12.9 | 0.00 | 0.00 | 0.00 | 69 | 1016.1 |
| 20260509091505 | 17 | 263 | 6.4 | 12.9 | 0.00 | 0.00 | 0.00 | 73 | 1016.2 |
| 20260509090505 | 17 | 265 | 4.8 | 11.3 | 0.00 | 0.00 | 0.00 | 73 | 1016.2 |
| 20260509085505 | 16 | 252 | 3.2 | 8.0 | 0.00 | 0.00 | 0.00 | 73 | 1016.2 |
| 20260509085005 | 16 | 251 | 3.2 | 8.0 | 0.00 | 0.00 | 0.00 | 73 | 1016.1 |
| 20260509084505 | 16 | 248 | 4.8 | 9.7 | 0.00 | 0.00 | 0.00 | 73 | 1016.2 |
| 20260509083505 | 16 | 247 | 6.4 | 12.9 | 0.00 | 0.00 | 0.00 | 73 | 1016.4 |
| 20260509083005 | 16 | 242 | 6.4 | 12.9 | 0.00 | 0.00 | 0.00 | 73 | 1016.2 |
| 20260509082505 | 16 | 241 | 6.4 | 12.9 | 0.00 | 0.00 | 0.00 | 74 | 1016.2 |
| 20260509082005 | 16 | 241 | 4.8 | 12.9 | 0.00 | 0.00 | 0.00 | 75 | 1016.3 |
| 20260509081505 | 16 | 239 | 3.2 | 8.0 | 0.00 | 0.00 | 0.00 | 75 | 1016.4 |
| 20260509080508 | 16 | 252 | 3.2 | 6.4 | 0.00 | 0.00 | 0.00 | 76 | 1016.3 |
| 20260509075505 | 15 | 253 | 4.8 | 11.3 | 0.00 | 0.00 | 0.00 | 76 | 1016.3 |
| 20260509075005 | 15 | 242 | 4.8 | 11.3 | 0.00 | 0.00 | 0.00 | 76 | 1016.2 |
| 20260509074505 | 15 | 235 | 3.2 | 9.7 | 0.00 | 0.00 | 0.00 | 76 | 1016.3 |
| 20260509073504 | 15 | 228 | 3.2 | 3.2 | 0.00 | 0.00 | 0.00 | 76 | 1016.1 |
| 20260509073005 | 15 | 236 | 3.2 | 8.0 | 0.00 | 0.00 | 0.00 | 76 | 1016.2 |
| 20260509072005 | 15 | 235 | 4.8 | 9.7 | 0.00 | 0.00 | 0.00 | 76 | 1016.5 |
| 20260509071505 | 15 | 241 | 4.8 | 9.7 | 0.00 | 0.00 | 0.00 | 76 | 1016.5 |
| 20260509070505 | 14 | 239 | 6.4 | 12.9 | 0.00 | 0.00 | 0.00 | 77 | 1016.4 |
| 20260509070005 | 14 | 227 | 6.4 | 12.9 | 0.00 | 0.00 | 0.00 | 78 | 1016.6 |
| 20260509065505 | 14 | 222 | 6.4 | 9.7 | 0.00 | 0.00 | 0.00 | 78 | 1016.4 |
| 20260509065005 | 13 | 55 | 3.2 | 8.0 | 0.00 | 0.00 | 0.00 | 79 | 1016.5 |
| 20260509064505 | 13 | 63 | 0.0 | 4.8 | 0.00 | 0.00 | 0.00 | 80 | 1016.4 |
| 20260509064005 | 13 | 67 | 1.6 | 4.8 | 0.00 | 0.00 | 0.00 | 81 | 1016.5 |
| 20260509063505 | 13 | 70 | 3.2 | 4.8 | 0.00 | 0.00 | 0.00 | 82 | 1016.4 |
| 20260509063006 | 12 | 65 | 3.2 | 4.8 | 0.00 | 0.00 | 0.00 | 83 | 1016.2 |
| 20260509062505 | 12 | 68 | 1.6 | 3.2 | 0.00 | 0.00 | 0.00 | 84 | 1016.5 |
| 20260509062005 | 12 | 69 | 1.6 | 3.2 | 0.00 | 0.00 | 0.00 | 85 | 1016.2 |
| 20260509061505 | 12 | 62 | 3.2 | 4.8 | 0.00 | 0.00 | 0.00 | 88 | 1016.5 |
| 20260509061005 | 12 | 45 | 3.2 | 6.4 | 0.00 | 0.00 | 0.00 | 89 | 1016.4 |
| 20260509060505 | 11 | 34 | 3.2 | 6.4 | 0.00 | 0.00 | 0.00 | 90 | 1016.4 |
| 20260509055505 | 11 | 32 | 3.2 | 6.4 | 0.00 | 0.00 | 0.00 | 92 | 1016.5 |
| 20260509055005 | 11 | 37 | 4.8 | 6.4 | 0.00 | 0.00 | 0.00 | 93 | 1016.4 |
| 20260509054005 | 10 | 51 | 3.2 | 6.4 | 0.00 | 0.00 | 0.00 | 94 | 1016.4 |
| 20260509053505 | 10 | 58 | 3.2 | 4.8 | 0.00 | 0.00 | 0.00 | 95 | 1016.3 |
| 20260509053005 | 10 | 69 | 3.2 | 4.8 | 0.00 | 0.00 | 0.00 | 95 | 1016.3 |
| 20260509052505 | 10 | 77 | 3.2 | 6.4 | 0.00 | 0.00 | 0.00 | 95 | 1016.2 |
| 20260509051504 | 10 | 71 | 1.6 | 4.8 | 0.00 | 0.00 | 0.00 | 95 | 1016.2 |
| 20260509051005 | 10 | 64 | 1.6 | 4.8 | 0.00 | 0.00 | 0.00 | 95 | 1016.2 |
| 20260509050505 | 10 | 68 | 3.2 | 6.4 | 0.00 | 0.00 | 0.00 | 95 | 1016.1 |
| 20260509045505 | 9 | 53 | 3.2 | 4.8 | 0.00 | 0.00 | 0.00 | 94 | 1016.2 |
| 20260509045005 | 9 | 55 | 3.2 | 4.8 | 0.00 | 0.00 | 0.00 | 93 | 1016.0 |
| 20260509044504 | 9 | 67 | 1.6 | 4.8 | 0.00 | 0.00 | 0.00 | 92 | 1015.9 |
| 20260509044005 | 9 | 83 | 1.6 | 3.2 | 0.00 | 0.00 | 0.00 | 92 | 1015.9 |
| 20260509043505 | 9 | 90 | 1.6 | 3.2 | 0.00 | 0.00 | 0.00 | 92 | 1015.8 |
| 20260509043005 | 9 | 111 | 0.0 | 3.2 | 0.00 | 0.00 | 0.00 | 92 | 1015.7 |
| 20260509042505 | 9 | 111 | 1.6 | 3.2 | 0.00 | 0.00 | 0.00 | 92 | 1015.7 |
| 20260509041505 | 9 | 96 | 0.0 | 3.2 | 0.00 | 0.00 | 0.00 | 93 | 1015.5 |
| 20260509041005 | 9 | 95 | 1.6 | 3.2 | 0.00 | 0.00 | 0.00 | 93 | 1015.5 |
| 20260509040505 | 10 | 96 | 3.2 | 6.4 | 0.00 | 0.00 | 0.00 | 93 | 1015.3 |
| 20260509040005 | 10 | 95 | 4.8 | 6.4 | 0.00 | 0.00 | 0.00 | 93 | 1015.3 |
| 20260509034506 | 10 | 85 | 1.6 | 6.4 | 0.00 | 0.00 | 0.00 | 93 | 1015.3 |
| 20260509034005 | 10 | 80 | 1.6 | 4.8 | 0.00 | 0.00 | 0.00 | 93 | 1015.5 |
| 20260509033505 | 10 | 75 | 1.6 | 4.8 | 0.00 | 0.00 | 0.00 | 94 | 1015.5 |
| 20260509033005 | 10 | 73 | 3.2 | 4.8 | 0.00 | 0.00 | 0.00 | 94 | 1015.5 |
| 20260509032505 | 10 | 72 | 3.2 | 6.4 | 0.00 | 0.00 | 0.00 | 94 | 1015.4 |
| 20260509031504 | 10 | 71 | 3.2 | 6.4 | 0.00 | 0.00 | 0.00 | 94 | 1015.4 |
| 20260509031005 | 10 | 71 | 3.2 | 6.4 | 0.00 | 0.00 | 0.00 | 94 | 1015.5 |
| 20260509030505 | 10 | 75 | 4.8 | 8.0 | 0.00 | 0.00 | 0.00 | 94 | 1015.5 |
| 20260509030005 | 10 | 76 | 4.8 | 8.0 | 0.00 | 0.00 | 0.00 | 94 | 1015.5 |
| 20260509025505 | 10 | 77 | 3.2 | 4.8 | 0.00 | 0.00 | 0.00 | 94 | 1015.6 |
| 20260509025005 | 10 | 82 | 3.2 | 4.8 | 0.00 | 0.00 | 0.00 | 94 | 1015.7 |
| 20260509024505 | 10 | 86 | 3.2 | 4.8 | 0.00 | 0.00 | 0.00 | 94 | 1015.5 |
| 20260509024004 | 10 | 90 | 3.2 | 4.8 | 0.00 | 0.00 | 0.00 | 94 | 1015.5 |
| 20260509023505 | 10 | 87 | 3.2 | 4.8 | 0.00 | 0.00 | 0.00 | 94 | 1015.5 |
| 20260509023005 | 10 | 81 | 1.6 | 3.2 | 0.00 | 0.00 | 0.00 | 94 | 1015.7 |
| 20260509022505 | 10 | 79 | 1.6 | 4.8 | 0.00 | 0.00 | 0.00 | 95 | 1015.6 |
| 20260509022005 | 10 | 72 | 3.2 | 6.4 | 0.00 | 0.00 | 0.00 | 95 | 1015.6 |
| 20260509021504 | 10 | 68 | 4.8 | 6.4 | 0.00 | 0.00 | 0.00 | 95 | 1015.6 |
| 20260509021004 | 10 | 65 | 4.8 | 8.0 | 0.00 | 0.00 | 0.00 | 95 | 1015.6 |
| 20260509020505 | 10 | 67 | 4.8 | 8.0 | 0.00 | 0.00 | 0.00 | 95 | 1015.6 |
| 20260509015004 | 10 | 76 | 3.2 | 6.4 | 0.00 | 0.00 | 0.00 | 93 | 1015.6 |
| 20260509014504 | 10 | 86 | 3.2 | 4.8 | 0.00 | 0.00 | 0.00 | 93 | 1015.5 |
| 20260509013505 | 10 | 101 | 1.6 | 3.2 | 0.00 | 0.00 | 0.00 | 93 | 1015.6 |
| 20260509013005 | 10 | 95 | 1.6 | 3.2 | 0.00 | 0.00 | 0.00 | 93 | 1015.6 |
| 20260509012005 | 10 | 90 | 0.0 | 3.2 | 0.00 | 0.00 | 0.00 | 94 | 1015.6 |
| 20260509011505 | 10 | 90 | 0.0 | 3.2 | 0.00 | 0.00 | 0.00 | 95 | 1015.5 |
| 20260509011005 | 10 | 95 | 1.6 | 6.4 | 0.00 | 0.00 | 0.00 | 95 | 1015.4 |
| 20260509010005 | 10 | 97 | 3.2 | 6.4 | 0.00 | 0.00 | 0.00 | 95 | 1015.6 |
| 20260509005505 | 10 | 92 | 3.2 | 6.4 | 0.00 | 0.00 | 0.00 | 95 | 1015.6 |
| 20260509004004 | 10 | 80 | 3.2 | 6.4 | 0.00 | 0.00 | 0.00 | 95 | 1015.7 |
| 20260509003505 | 10 | 73 | 3.2 | 8.0 | 0.00 | 0.00 | 0.00 | 95 | 1015.7 |
| 20260509002505 | 10 | 77 | 3.2 | 6.4 | 0.00 | 0.00 | 0.00 | 94 | 1015.8 |
| 20260509002004 | 10 | 81 | 1.6 | 4.8 | 0.00 | 0.00 | 0.00 | 94 | 1015.8 |
| 20260509000505 | 11 | 82 | 3.2 | 4.8 | 0.00 | 0.00 | 0.00 | 94 | 1016.0 |
| 20260508235505 | 11 | 71 | 1.6 | 3.2 | 0.00 | 0.00 | 0.00 | 94 | 1015.9 |
| 20260508234505 | 11 | 71 | 3.2 | 4.8 | 0.00 | 0.00 | 0.00 | 93 | 1016.2 |
| 20260508234005 | 11 | 70 | 1.6 | 3.2 | 0.00 | 0.00 | 0.00 | 93 | 1016.1 |
| 20260508233504 | 11 | 68 | 1.6 | 3.2 | 0.00 | 0.00 | 0.00 | 93 | 1016.2 |
| 20260508233005 | 11 | 68 | 1.6 | 3.2 | 0.00 | 0.00 | 0.00 | 93 | 1016.0 |
| 20260508231505 | 11 | 92 | 3.2 | 4.8 | 0.00 | 0.00 | 0.00 | 92 | 1016.1 |
| 20260508231005 | 11 | 112 | 1.6 | 4.8 | 0.00 | 0.00 | 0.00 | 92 | 1016.1 |
| 20260508230005 | 12 | 77 | 0.0 | 3.2 | 0.00 | 0.00 | 0.00 | 91 | 1016.2 |
| 20260508225504 | 12 | 83 | 0.0 | 3.2 | 0.00 | 0.00 | 0.00 | 91 | 1016.0 |
| 20260508225004 | 12 | 71 | 0.0 | 3.2 | 0.00 | 0.00 | 0.00 | 92 | 1016.0 |
| 20260508224508 | 12 | 58 | 1.6 | 4.8 | 0.00 | 0.00 | 0.00 | 88 | 1015.9 |
| 20260508223505 | 12 | 63 | 3.2 | 6.4 | 0.00 | 0.00 | 0.00 | 88 | 1015.7 |
| 20260508222505 | 12 | 60 | 3.2 | 6.4 | 0.00 | 0.00 | 0.00 | 87 | 1015.9 |
| 20260508222005 | 12 | 58 | 3.2 | 6.4 | 0.00 | 0.00 | 0.00 | 87 | 1016.0 |
| 20260508221508 | 13 | 60 | 3.2 | 4.8 | 0.00 | 0.00 | 0.00 | 87 | 1016.1 |
| 20260508221004 | 13 | 43 | 1.6 | 4.8 | 0.00 | 0.00 | 0.00 | 86 | 1016.0 |
| 20260508220507 | 13 | 244 | 1.6 | 3.2 | 0.00 | 0.00 | 0.00 | 86 | 1015.9 |
| 20260508220005 | 13 | 286 | 1.6 | 3.2 | 0.00 | 0.00 | 0.00 | 86 | 1016.0 |
| 20260508215504 | 13 | 347 | 0.0 | 3.2 | 0.00 | 0.00 | 0.00 | 86 | 1015.7 |
| 20260508215005 | 13 | 359 | 1.6 | 4.8 | 0.00 | 0.00 | 0.00 | 86 | 1015.8 |
| 20260508214505 | 13 | 354 | 3.2 | 6.4 | 0.00 | 0.00 | 0.00 | 86 | 1015.6 |
| 20260508214005 | 13 | 30 | 3.2 | 6.4 | 0.00 | 0.00 | 0.00 | 86 | 1015.6 |
| 20260508213504 | 13 | 44 | 3.2 | 4.8 | 0.00 | 0.00 | 0.00 | 86 | 1015.3 |
| 20260508213004 | 13 | 54 | 3.2 | 4.8 | 0.00 | 0.00 | 0.00 | 86 | 1015.4 |
| 20260508212505 | 14 | 57 | 3.2 | 4.8 | 0.00 | 0.00 | 0.00 | 86 | 1015.3 |
| 20260508212005 | 14 | 53 | 3.2 | 6.4 | 0.00 | 0.00 | 0.00 | 86 | 1015.2 |
| 20260508211505 | 14 | 57 | 4.8 | 6.4 | 0.00 | 0.00 | 0.00 | 86 | 1015.1 |
| 20260508211004 | 14 | 57 | 4.8 | 6.4 | 0.00 | 0.00 | 0.00 | 86 | 1015.1 |
| 20260508210504 | 14 | 54 | 3.2 | 6.4 | 0.00 | 0.00 | 0.00 | 86 | 1015.2 |
| 20260508210005 | 14 | 35 | 3.2 | 6.4 | 0.00 | 0.00 | 0.00 | 86 | 1015.4 |
| 20260508205008 | 14 | 43 | 1.6 | 3.2 | 0.00 | 0.00 | 0.00 | 85 | 1015.7 |
| 20260508204505 | 15 | 50 | 1.6 | 4.8 | 0.00 | 0.00 | 0.00 | 85 | 1015.6 |
| 20260508203504 | 15 | 38 | 3.2 | 4.8 | 0.00 | 0.00 | 0.00 | 84 | 1015.4 |
| 20260508203004 | 15 | 45 | 3.2 | 6.4 | 0.00 | 0.00 | 0.00 | 84 | 1015.4 |
| 20260508202505 | 15 | 40 | 3.2 | 6.4 | 0.00 | 0.00 | 0.00 | 83 | 1015.6 |
| 20260508201505 | 15 | 32 | 3.2 | 8.0 | 0.00 | 0.00 | 0.00 | 83 | 1015.2 |
| 20260508201004 | 15 | 34 | 3.2 | 8.0 | 0.00 | 0.00 | 0.00 | 83 | 1015.4 |
| 20260508200504 | 15 | 27 | 3.2 | 8.0 | 0.00 | 0.00 | 0.00 | 83 | 1015.3 |
| 20260508200004 | 15 | 31 | 3.2 | 9.7 | 0.00 | 0.00 | 0.00 | 81 | 1015.3 |
| 20260508195506 | 15 | 45 | 4.8 | 9.7 | 0.00 | 0.00 | 0.00 | 80 | 1015.1 |
| 20260508195005 | 15 | 56 | 4.8 | 8.0 | 0.00 | 0.00 | 0.00 | 80 | 1015.3 |
| 20260508194507 | 15 | 60 | 4.8 | 8.0 | 0.00 | 0.00 | 0.00 | 79 | 1015.1 |
| 20260508194005 | 16 | 64 | 4.8 | 8.0 | 0.00 | 0.00 | 0.00 | 78 | 1015.0 |
| 20260508193005 | 16 | 70 | 4.8 | 9.7 | 0.00 | 0.00 | 0.00 | 76 | 1014.7 |